createdAt,value
2019-05-14T00:00:18.043Z,45.00
2019-05-14T00:02:46.512Z,45.00
2019-05-14T00:05:15.866Z,45.00
2019-05-14T00:07:44.410Z,45.00
2019-05-14T00:10:12.941Z,45.00
2019-05-14T00:12:41.979Z,45.00
2019-05-14T00:15:11.082Z,45.00
2019-05-14T00:17:41.636Z,45.10
2019-05-14T00:20:12.846Z,45.10
2019-05-14T00:22:41.698Z,45.10
2019-05-14T00:25:11.679Z,45.20
2019-05-14T00:27:41.423Z,45.20
2019-05-14T00:30:11.466Z,45.20
2019-05-14T00:32:41.492Z,45.20
2019-05-14T00:35:11.082Z,45.20
2019-05-14T00:37:41.526Z,45.30
2019-05-14T00:40:11.762Z,45.40
2019-05-14T00:42:41.491Z,45.40
2019-05-14T00:45:11.525Z,45.40
2019-05-14T00:47:41.867Z,45.50
2019-05-14T00:50:11.274Z,45.50
2019-05-14T00:52:42.493Z,45.50
2019-05-14T00:55:11.761Z,45.50
2019-05-14T00:57:42.478Z,45.50
2019-05-14T01:00:11.695Z,45.50
2019-05-14T01:02:41.567Z,45.60
2019-05-14T01:05:12.391Z,45.60
2019-05-14T01:07:42.360Z,45.60
2019-05-14T01:10:11.574Z,45.70
2019-05-14T01:12:41.344Z,45.60
2019-05-14T01:15:13.391Z,45.70
2019-05-14T01:17:42.192Z,45.70
2019-05-14T01:20:12.393Z,45.80
2019-05-14T01:22:42.301Z,45.80
2019-05-14T01:25:12.067Z,45.90
2019-05-14T01:27:41.397Z,45.90
2019-05-14T01:30:12.259Z,45.90
2019-05-14T01:32:42.038Z,45.90
2019-05-14T01:35:12.050Z,45.90
2019-05-14T01:37:41.623Z,45.90
2019-05-14T01:40:11.416Z,45.90
2019-05-14T01:42:41.647Z,45.90
2019-05-14T01:45:23.522Z,45.90
2019-05-14T01:47:41.485Z,45.90
2019-05-14T01:50:11.347Z,46.00
2019-05-14T01:52:41.514Z,45.90
2019-05-14T01:55:11.392Z,46.00
2019-05-14T01:57:42.276Z,46.00
2019-05-14T02:00:11.439Z,46.00
2019-05-14T02:02:41.757Z,46.00
2019-05-14T02:05:12.511Z,46.00
2019-05-14T02:07:42.037Z,46.10
2019-05-14T02:10:11.637Z,46.10
2019-05-14T02:12:42.339Z,46.10
2019-05-14T02:15:12.077Z,46.10
2019-05-14T02:17:41.375Z,46.10
2019-05-14T02:20:12.372Z,46.10
2019-05-14T02:22:41.689Z,46.20
2019-05-14T02:25:11.680Z,46.10
2019-05-14T02:27:41.353Z,46.20
2019-05-14T02:30:10.737Z,46.30
2019-05-14T02:32:40.675Z,46.30
2019-05-14T02:35:10.117Z,46.30
2019-05-14T02:37:40.070Z,46.30
2019-05-14T02:40:09.829Z,46.30
2019-05-14T02:42:40.237Z,46.30
2019-05-14T02:45:09.714Z,46.30
2019-05-14T02:47:39.736Z,46.40
2019-05-14T02:50:09.889Z,46.50
2019-05-14T02:52:40.346Z,46.40
2019-05-14T02:55:09.491Z,46.50
2019-05-14T02:57:39.379Z,46.50
2019-05-14T03:00:10.130Z,46.50
2019-05-14T03:02:40.437Z,47.10
2019-05-14T03:05:09.863Z,46.50
2019-05-14T03:07:39.485Z,46.60
2019-05-14T03:10:10.055Z,46.60
2019-05-14T03:12:39.551Z,46.60
2019-05-14T03:15:09.695Z,46.60
2019-05-14T03:17:40.361Z,46.60
2019-05-14T03:20:09.301Z,46.60
2019-05-14T03:22:46.797Z,46.60
2019-05-14T03:25:10.099Z,46.60
2019-05-14T03:27:40.532Z,46.70
2019-05-14T03:30:12.580Z,46.70
2019-05-14T03:32:42.448Z,46.70
2019-05-14T03:35:13.112Z,46.80
2019-05-14T03:37:40.203Z,46.70
2019-05-14T03:40:09.435Z,46.70
2019-05-14T03:42:39.953Z,46.80
2019-05-14T03:45:09.252Z,46.80
2019-05-14T03:47:39.503Z,46.90
2019-05-14T03:50:10.291Z,46.90
2019-05-14T03:52:39.912Z,46.90
2019-05-14T03:55:09.471Z,46.90
2019-05-14T03:57:39.973Z,46.90
2019-05-14T04:00:10.270Z,46.90
2019-05-14T04:02:39.291Z,46.90
2019-05-14T04:05:09.580Z,46.90
2019-05-14T04:07:39.353Z,46.90
2019-05-14T04:10:10.300Z,46.90
2019-05-14T04:12:40.402Z,46.90
2019-05-14T04:15:09.756Z,46.90
2019-05-14T04:17:42.182Z,46.90
2019-05-14T04:20:09.521Z,46.90
2019-05-14T04:22:39.337Z,46.90
2019-05-14T04:25:10.822Z,46.90
2019-05-14T04:27:40.232Z,46.90
2019-05-14T04:30:09.653Z,46.90
2019-05-14T04:32:39.960Z,46.90
2019-05-14T04:35:09.571Z,47.40
2019-05-14T04:37:39.892Z,46.80
2019-05-14T04:40:10.000Z,46.60
2019-05-14T04:42:40.181Z,46.60
2019-05-14T04:45:11.001Z,46.60
2019-05-14T04:50:25.961Z,46.50
2019-05-14T04:52:55.406Z,46.60
2019-05-14T04:55:29.659Z,46.70
2019-05-14T05:09:59.293Z,46.60
2019-05-14T05:12:42.564Z,46.50
2019-05-14T05:18:18.597Z,46.50
2019-05-14T05:21:00.043Z,46.50
2019-05-14T05:23:28.668Z,46.50
2019-05-14T05:25:58.595Z,46.40
2019-05-14T05:28:30.573Z,46.50
2019-05-14T05:30:59.172Z,46.50
2019-05-14T05:39:38.954Z,46.20
2019-05-14T05:44:49.622Z,46.10
2019-05-14T05:47:21.172Z,46.10
2019-05-14T05:49:50.418Z,46.20
2019-05-14T05:52:24.281Z,46.20
2019-05-14T05:57:33.450Z,46.10
2019-05-14T06:00:02.066Z,46.20
2019-05-14T06:05:10.106Z,46.40
2019-05-14T06:13:34.519Z,46.60
2019-05-14T07:02:30.035Z,47.10
2019-05-14T07:04:59.073Z,47.10
2019-05-14T07:07:30.152Z,47.10
2019-05-14T07:09:58.282Z,46.90
2019-05-14T07:12:29.267Z,46.70
2019-05-14T07:14:58.537Z,46.60
2019-05-14T07:17:28.757Z,46.40
2019-05-14T07:19:58.270Z,46.20
2019-05-14T07:22:28.156Z,46.00
2019-05-14T07:24:58.728Z,45.90
2019-05-14T07:30:29.090Z,45.80
2019-05-14T07:38:39.191Z,45.40
2019-05-14T07:41:09.235Z,45.40
2019-05-14T07:43:42.549Z,45.40
2019-05-14T08:32:39.017Z,45.10
2019-05-14T09:15:02.972Z,44.90
2019-05-14T09:26:14.512Z,44.70
2019-05-14T09:48:38.161Z,44.60
2019-05-14T09:56:32.368Z,44.50
2019-05-14T09:59:09.020Z,44.50
2019-05-14T10:48:40.472Z,44.30
2019-05-14T10:51:09.908Z,44.30
2019-05-14T10:53:38.582Z,44.40
2019-05-14T10:56:07.149Z,44.40
2019-05-14T10:58:35.665Z,44.40
2019-05-14T11:01:04.236Z,44.40
2019-05-14T11:03:32.782Z,44.40
2019-05-14T11:06:01.262Z,44.60
2019-05-14T11:08:29.855Z,44.70
2019-05-14T11:11:03.611Z,44.60
2019-05-14T11:21:55.304Z,44.20
2019-05-14T11:30:34.715Z,43.90
2019-05-14T12:02:14.013Z,43.40
2019-05-14T12:07:32.884Z,44.00
2019-05-14T12:12:30.353Z,45.20
2019-05-14T12:14:59.021Z,45.90
2019-05-14T12:17:29.492Z,46.30
2019-05-14T12:19:59.407Z,46.80
2019-05-14T12:22:28.736Z,46.60
2019-05-14T12:30:15.930Z,47.70
2019-05-14T12:35:29.237Z,47.70
2019-05-14T12:37:58.590Z,47.80
2019-05-14T12:46:05.341Z,47.90
2019-05-14T12:48:33.865Z,47.50
2019-05-14T12:53:45.798Z,47.70
2019-05-14T13:30:29.831Z,47.60
2019-05-14T13:32:59.204Z,47.60
2019-05-14T13:35:29.270Z,47.70
2019-05-14T13:37:58.637Z,47.60
2019-05-14T13:40:28.379Z,47.60
2019-05-14T13:42:57.080Z,47.50
2019-05-14T13:45:25.693Z,47.30
2019-05-14T13:47:54.337Z,47.10
2019-05-14T13:50:22.918Z,46.90
2019-05-14T13:53:04.199Z,46.00
2019-05-14T13:55:21.697Z,46.10
2019-05-14T13:57:50.238Z,46.90
2019-05-14T14:00:19.851Z,45.60
2019-05-14T14:02:48.859Z,45.30
2019-05-14T14:05:20.299Z,44.90
2019-05-14T14:07:48.559Z,45.00
2019-05-14T14:10:17.324Z,44.50
2019-05-14T14:12:49.314Z,44.50
2019-05-14T14:15:16.169Z,43.80
2019-05-14T14:17:44.721Z,43.60
2019-05-14T14:20:13.305Z,43.00
2019-05-14T14:22:41.923Z,42.80
2019-05-14T14:25:10.487Z,42.20
2019-05-14T14:27:40.864Z,42.10
2019-05-14T14:30:09.633Z,41.60
2019-05-14T14:32:40.620Z,41.60
2019-05-14T14:35:08.875Z,41.30
2019-05-14T14:37:39.735Z,41.20
2019-05-14T14:40:10.108Z,41.00
2019-05-14T14:42:40.140Z,41.20
2019-05-14T14:45:08.602Z,40.90
2019-05-14T14:47:39.427Z,40.50
2019-05-14T14:50:08.543Z,40.00
2019-05-14T14:52:37.191Z,39.60
2019-05-14T14:55:06.669Z,39.50
2019-05-14T14:57:35.330Z,39.00
2019-05-14T15:00:04.931Z,38.70
2019-05-14T15:02:40.803Z,38.20
2019-05-14T15:05:13.344Z,37.60
2019-05-14T15:07:40.821Z,37.30
2019-05-14T15:10:08.849Z,37.20
2019-05-14T15:12:39.935Z,36.70
2019-05-14T15:15:07.662Z,36.20
2019-05-14T15:17:38.981Z,36.20
2019-05-14T15:20:09.909Z,36.80
2019-05-14T15:22:36.602Z,36.20
2019-05-14T15:25:05.654Z,36.00
2019-05-14T15:27:34.240Z,35.30
2019-05-14T15:30:03.125Z,35.50
2019-05-14T15:32:31.643Z,34.70
2019-05-14T15:35:00.163Z,34.70
2019-05-14T15:37:31.590Z,34.50
2019-05-14T15:39:58.866Z,34.30
2019-05-14T15:42:28.366Z,34.00
2019-05-14T15:44:59.811Z,33.70
2019-05-14T15:47:29.605Z,33.50
2019-05-14T15:49:59.432Z,33.30
2019-05-14T15:52:29.143Z,33.00
2019-05-14T15:54:58.012Z,32.50
2019-05-14T15:57:28.881Z,32.30
2019-05-14T16:00:00.800Z,32.10
2019-05-14T16:02:29.545Z,31.80
2019-05-14T16:04:59.144Z,31.60
2019-05-14T16:07:29.379Z,31.70
2019-05-14T16:10:00.677Z,31.70
2019-05-14T16:12:28.667Z,31.30
2019-05-14T16:14:58.290Z,31.20
2019-05-14T16:17:30.213Z,31.30
2019-05-14T16:19:57.053Z,31.00
2019-05-14T16:22:25.592Z,30.80
2019-05-14T16:24:57.088Z,30.70
2019-05-14T16:27:24.328Z,30.70
2019-05-14T16:29:52.887Z,30.70
2019-05-14T16:32:21.459Z,30.80
2019-05-14T16:34:49.971Z,30.70
2019-05-14T16:37:18.479Z,30.80
2019-05-14T16:39:48.796Z,30.80
2019-05-14T16:42:20.643Z,30.80
2019-05-14T16:44:47.576Z,31.90
2019-05-14T16:47:18.707Z,34.70
2019-05-14T16:49:48.198Z,37.10
2019-05-14T16:52:18.087Z,38.80
2019-05-14T16:54:48.759Z,40.00
2019-05-14T16:57:18.583Z,40.60
2019-05-14T16:59:49.448Z,40.90
2019-05-14T17:02:19.106Z,41.10
2019-05-14T17:04:48.403Z,41.10
2019-05-14T17:07:18.230Z,41.00
2019-05-14T17:09:49.229Z,40.90
2019-05-14T17:12:20.165Z,40.80
2019-05-14T17:14:47.600Z,40.70
2019-05-14T17:17:16.121Z,40.50
2019-05-14T17:19:44.634Z,40.40
2019-05-14T17:22:27.769Z,40.40
2019-05-14T17:24:43.334Z,40.50
2019-05-14T17:27:11.851Z,40.40
2019-05-14T17:29:40.416Z,40.40
2019-05-14T17:32:08.909Z,40.40
2019-05-14T17:34:38.658Z,40.30
2019-05-14T17:37:08.983Z,40.30
2019-05-14T17:39:38.702Z,40.30
2019-05-14T17:42:11.414Z,40.20
2019-05-14T17:44:38.803Z,40.20
2019-05-14T17:47:07.504Z,40.20
2019-05-14T17:49:36.068Z,40.00
2019-05-14T17:52:04.615Z,40.10
2019-05-14T17:54:33.167Z,40.10
2019-05-14T17:57:01.671Z,40.10
2019-05-14T17:59:33.055Z,40.10
2019-05-14T18:02:00.377Z,40.20
2019-05-14T18:04:28.990Z,40.00
2019-05-14T18:06:59.146Z,40.10
2019-05-14T18:09:29.318Z,40.20
2019-05-14T18:11:58.635Z,40.10
2019-05-14T18:14:28.410Z,40.10
2019-05-14T18:16:58.513Z,40.20
2019-05-14T18:19:28.929Z,40.20
2019-05-14T18:21:59.286Z,40.20
2019-05-14T18:24:28.622Z,40.30
2019-05-14T18:26:57.320Z,40.30
2019-05-14T18:29:25.798Z,40.90
2019-05-14T18:31:55.275Z,40.30
2019-05-14T18:34:24.330Z,40.30
2019-05-14T18:36:52.916Z,40.40
2019-05-14T18:39:21.490Z,40.40
2019-05-14T18:41:50.219Z,40.40
2019-05-14T18:44:19.082Z,40.40
2019-05-14T18:46:48.653Z,40.50
2019-05-14T18:49:19.500Z,40.50
2019-05-14T18:51:50.127Z,40.50
2019-05-14T18:54:17.886Z,40.60
2019-05-14T18:56:48.714Z,40.60
2019-05-14T18:59:21.350Z,40.70
2019-05-14T19:01:49.233Z,40.70
2019-05-14T19:04:18.541Z,40.70
2019-05-14T19:06:48.259Z,40.80
2019-05-14T19:09:18.640Z,40.80
2019-05-14T19:11:48.198Z,40.80
2019-05-14T19:14:18.691Z,40.80
2019-05-14T19:16:48.941Z,41.00
2019-05-14T19:19:17.327Z,40.90
2019-05-14T19:21:45.887Z,41.00
2019-05-14T19:24:14.432Z,41.00
2019-05-14T19:26:42.960Z,41.00
2019-05-14T19:29:11.550Z,41.10
2019-05-14T19:31:40.097Z,41.10
2019-05-14T19:34:08.676Z,41.10
2019-05-14T19:36:37.195Z,41.80
2019-05-14T19:39:07.852Z,41.20
2019-05-14T19:41:38.790Z,41.30
2019-05-14T19:44:08.700Z,41.30
2019-05-14T19:46:38.637Z,41.30
2019-05-14T19:49:08.183Z,41.40
2019-05-14T19:51:38.793Z,41.30
2019-05-14T19:54:08.162Z,41.30
2019-05-14T19:56:49.604Z,41.30
2019-05-14T19:59:09.039Z,41.30
2019-05-14T20:01:38.537Z,41.20
2019-05-14T20:04:09.368Z,41.30
2019-05-14T20:06:38.790Z,41.30
2019-05-14T20:09:09.513Z,41.30
2019-05-14T20:11:39.663Z,41.40
2019-05-14T20:14:08.085Z,42.00
2019-05-14T20:16:39.041Z,41.30
2019-05-14T20:19:08.804Z,41.40
2019-05-14T20:21:38.971Z,41.50
2019-05-14T20:24:07.300Z,41.50
2019-05-14T20:26:35.783Z,41.50
2019-05-14T20:29:04.265Z,41.50
2019-05-14T20:31:32.852Z,41.50
2019-05-14T20:34:01.357Z,41.50
2019-05-14T20:36:29.829Z,41.50
2019-05-14T20:38:58.998Z,41.60
2019-05-14T20:41:28.778Z,41.60
2019-05-14T20:43:58.625Z,41.60
2019-05-14T20:46:28.509Z,41.60
2019-05-14T20:48:59.185Z,41.60
2019-05-14T20:51:30.200Z,41.70
2019-05-14T20:53:58.128Z,41.70
2019-05-14T20:56:28.431Z,41.70
2019-05-14T20:58:58.817Z,41.70
2019-05-14T21:01:29.079Z,41.70
2019-05-14T21:03:59.265Z,41.70
2019-05-14T21:06:28.162Z,41.80
2019-05-14T21:08:58.501Z,41.80
2019-05-14T21:11:28.793Z,41.80
2019-05-14T21:13:58.112Z,41.80
2019-05-14T21:16:28.316Z,41.80
2019-05-14T21:18:58.964Z,41.80
2019-05-14T21:21:29.473Z,41.90
2019-05-14T21:23:58.628Z,41.80
2019-05-14T21:26:29.234Z,41.90
2019-05-14T21:28:58.322Z,41.90
2019-05-14T21:31:28.368Z,41.90
2019-05-14T21:33:58.626Z,42.00
2019-05-14T21:36:28.439Z,42.00
2019-05-14T21:38:58.604Z,42.00
2019-05-14T21:41:29.062Z,42.00
2019-05-14T21:43:58.446Z,42.00
2019-05-14T21:46:28.912Z,42.00
2019-05-14T21:48:58.603Z,42.00
2019-05-14T21:51:28.329Z,42.00
2019-05-14T21:53:58.802Z,42.00
2019-05-14T21:56:29.176Z,42.00
2019-05-14T21:58:58.571Z,42.00
2019-05-14T22:01:30.975Z,42.10
2019-05-14T22:03:59.309Z,42.10
2019-05-14T22:06:29.115Z,42.10
2019-05-14T22:08:59.088Z,42.20
2019-05-14T22:11:28.212Z,42.30
2019-05-14T22:13:58.292Z,42.30
2019-05-14T22:16:28.094Z,42.30
2019-05-14T22:18:59.143Z,42.30
2019-05-14T22:21:28.898Z,42.40
2019-05-14T22:23:58.901Z,42.40
2019-05-14T22:26:28.223Z,42.40
2019-05-14T22:28:58.686Z,42.40
2019-05-14T22:31:28.952Z,42.40
2019-05-14T22:33:58.287Z,42.50
2019-05-14T22:36:29.309Z,42.50
2019-05-14T22:38:57.950Z,42.50
2019-05-14T22:41:28.902Z,42.60
2019-05-14T22:43:59.736Z,42.60
2019-05-14T22:46:27.199Z,42.70
2019-05-14T22:48:55.788Z,42.70
2019-05-14T22:51:24.391Z,42.60
2019-05-14T22:53:52.973Z,42.70
2019-05-14T22:56:21.514Z,42.70
2019-05-14T22:58:50.132Z,42.80
2019-05-14T23:01:18.770Z,42.80
2019-05-14T23:03:48.910Z,42.80
2019-05-14T23:06:18.799Z,42.80
2019-05-14T23:08:48.644Z,42.80
2019-05-14T23:11:19.750Z,42.80
2019-05-14T23:13:48.789Z,42.80
2019-05-14T23:16:30.982Z,42.90
2019-05-14T23:18:48.733Z,42.90
2019-05-14T23:21:17.502Z,42.90
2019-05-14T23:23:46.143Z,43.00
2019-05-14T23:26:14.763Z,43.00
2019-05-14T23:28:45.960Z,43.00
2019-05-14T23:31:13.614Z,43.00
2019-05-14T23:33:42.199Z,43.00
2019-05-14T23:36:10.861Z,43.00
2019-05-14T23:38:51.920Z,43.10
2019-05-14T23:41:20.515Z,43.10
2019-05-14T23:43:49.107Z,43.10
2019-05-14T23:46:18.362Z,43.10
2019-05-14T23:48:48.456Z,43.10
2019-05-14T23:51:18.203Z,43.10
2019-05-14T23:53:48.332Z,43.20
2019-05-14T23:56:19.134Z,43.30
2019-05-14T23:58:55.854Z,43.30
